createdAt,value
2018-05-09T00:01:00.374Z,4.93
2018-05-09T00:03:28.655Z,4.70
2018-05-09T00:05:56.176Z,4.73
2018-05-09T00:08:23.666Z,4.13
2018-05-09T00:10:51.920Z,4.77
2018-05-09T00:13:19.396Z,4.60
2018-05-09T00:15:47.621Z,4.90
2018-05-09T00:18:15.081Z,4.50
2018-05-09T00:20:42.550Z,5.33
2018-05-09T00:23:10.008Z,4.50
2018-05-09T00:25:37.480Z,4.60
2018-05-09T00:28:04.956Z,5.23
2018-05-09T00:30:32.425Z,4.53
2018-05-09T00:32:59.895Z,4.87
2018-05-09T00:35:28.143Z,5.43
2018-05-09T00:37:55.603Z,4.63
2018-05-09T00:40:23.244Z,5.10
2018-05-09T00:42:50.647Z,4.90
2018-05-09T00:45:18.881Z,4.57
2018-05-09T00:47:46.387Z,5.20
2018-05-09T00:50:14.700Z,5.00
2018-05-09T00:52:42.096Z,4.90
2018-05-09T00:55:09.572Z,4.83
2018-05-09T00:57:37.806Z,4.60
2018-05-09T01:00:05.259Z,4.90
2018-05-09T01:02:32.783Z,5.00
2018-05-09T01:05:00.243Z,5.10
2018-05-09T01:07:28.516Z,4.67
2018-05-09T01:09:55.979Z,5.40
2018-05-09T01:12:23.475Z,4.70
2018-05-09T01:14:50.952Z,5.17
2018-05-09T01:17:18.413Z,4.73
2018-05-09T01:19:45.866Z,4.43
2018-05-09T01:22:13.334Z,5.20
2018-05-09T01:24:40.890Z,5.17
2018-05-09T01:27:08.355Z,5.00
2018-05-09T01:29:35.818Z,4.87
2018-05-09T01:32:04.058Z,5.60
2018-05-09T01:34:31.522Z,5.17
2018-05-09T01:36:59.009Z,5.20
2018-05-09T01:39:26.458Z,5.13
2018-05-09T01:41:54.012Z,5.53
2018-05-09T01:44:21.471Z,5.00
2018-05-09T01:46:48.934Z,5.43
2018-05-09T01:49:16.439Z,5.00
2018-05-09T01:51:43.903Z,4.93
2018-05-09T01:54:11.368Z,5.20
2018-05-09T01:56:38.923Z,5.70
2018-05-09T01:59:06.383Z,5.20
2018-05-09T02:01:33.914Z,5.50
2018-05-09T02:04:02.140Z,4.90
2018-05-09T02:06:29.606Z,5.30
2018-05-09T02:08:57.070Z,5.30
2018-05-09T02:11:24.575Z,5.43
2018-05-09T02:13:52.784Z,5.03
2018-05-09T02:16:20.250Z,5.83
2018-05-09T02:18:47.706Z,5.90
2018-05-09T02:21:15.175Z,5.57
2018-05-09T02:23:42.642Z,5.20
2018-05-09T02:26:10.114Z,5.47
2018-05-09T02:28:37.574Z,5.43
2018-05-09T02:31:05.145Z,5.20
2018-05-09T02:33:33.270Z,5.67
2018-05-09T02:36:00.753Z,5.50
2018-05-09T02:38:28.214Z,4.90
2018-05-09T02:40:55.693Z,5.00
2018-05-09T02:43:23.919Z,5.43
2018-05-09T02:45:51.395Z,5.23
2018-05-09T02:48:18.867Z,5.97
2018-05-09T02:50:46.331Z,5.60
2018-05-09T02:53:13.798Z,5.63
2018-05-09T02:55:42.021Z,5.40
2018-05-09T02:58:09.502Z,5.93
2018-05-09T03:00:36.958Z,5.53
2018-05-09T03:03:04.466Z,5.43
2018-05-09T03:05:31.922Z,5.97
2018-05-09T03:08:00.158Z,5.50
2018-05-09T03:10:27.610Z,5.03
2018-05-09T03:12:55.096Z,5.93
2018-05-09T03:15:22.545Z,5.33
2018-05-09T03:17:50.032Z,6.17
2018-05-09T03:20:18.318Z,6.30
2018-05-09T03:22:45.810Z,6.10
2018-05-09T03:25:13.300Z,5.30
2018-05-09T03:27:40.762Z,6.07
2018-05-09T03:30:08.221Z,5.40
2018-05-09T03:32:35.800Z,5.80
2018-05-09T03:35:04.030Z,5.97
2018-05-09T03:37:31.554Z,5.60
2018-05-09T03:39:58.968Z,5.60
2018-05-09T03:42:26.434Z,5.53
2018-05-09T03:44:54.670Z,5.50
2018-05-09T03:47:22.230Z,5.63
2018-05-09T03:49:49.676Z,5.47
2018-05-09T03:52:17.141Z,6.40
2018-05-09T03:54:44.589Z,6.07
2018-05-09T03:57:12.062Z,5.47
2018-05-09T03:59:39.523Z,6.20
2018-05-09T04:02:19.009Z,5.47
2018-05-09T04:04:59.302Z,5.70
2018-05-09T04:07:38.822Z,5.60
2018-05-09T04:10:07.047Z,6.43
2018-05-09T04:12:34.561Z,5.97
2018-05-09T04:15:02.788Z,5.77
2018-05-09T04:17:30.279Z,6.30
2018-05-09T04:19:58.515Z,5.70
2018-05-09T04:22:25.985Z,5.43
2018-05-09T04:24:53.531Z,5.57
2018-05-09T04:27:20.990Z,6.67
2018-05-09T04:29:48.469Z,6.10
2018-05-09T04:32:15.952Z,6.80
2018-05-09T04:34:44.162Z,6.30
2018-05-09T04:37:11.621Z,6.97
2018-05-09T04:39:39.091Z,5.30
2018-05-09T04:42:06.705Z,5.97
2018-05-09T04:44:34.090Z,6.30
2018-05-09T04:47:01.560Z,6.10
2018-05-09T04:49:29.034Z,6.43
2018-05-09T04:51:56.531Z,6.00
2018-05-09T04:54:24.769Z,6.50
2018-05-09T04:56:52.229Z,6.30
2018-05-09T04:59:19.681Z,6.90
2018-05-09T05:01:47.154Z,6.57
2018-05-09T05:04:14.616Z,6.33
2018-05-09T05:06:42.107Z,6.63
2018-05-09T05:09:10.331Z,6.33
2018-05-09T05:11:37.842Z,6.53
2018-05-09T05:14:06.070Z,6.70
2018-05-09T05:16:33.534Z,6.67
2018-05-09T05:19:00.989Z,6.40
2018-05-09T05:21:28.453Z,6.03
2018-05-09T05:23:55.922Z,6.30
2018-05-09T05:26:23.398Z,6.23
2018-05-09T05:28:50.855Z,6.73
2018-05-09T05:31:18.308Z,6.13
2018-05-09T05:33:45.782Z,7.40
2018-05-09T05:36:14.030Z,6.43
2018-05-09T05:38:41.507Z,7.27
2018-05-09T05:41:08.955Z,7.80
2018-05-09T05:43:36.494Z,6.33
2018-05-09T05:46:03.950Z,6.73
2018-05-09T05:48:31.413Z,6.70
2018-05-09T05:50:58.877Z,7.07
2018-05-09T05:53:26.341Z,6.30
2018-05-09T05:55:53.831Z,6.77
2018-05-09T05:58:22.118Z,5.70
2018-05-09T06:00:50.005Z,5.93
2018-05-09T06:03:17.484Z,6.63
2018-05-09T06:05:45.325Z,6.50
2018-05-09T06:08:12.895Z,7.47
2018-05-09T06:10:40.385Z,7.47
2018-05-09T06:13:07.882Z,7.30
2018-05-09T06:15:36.157Z,7.20
2018-05-09T06:18:04.758Z,6.60
2018-05-09T06:20:32.234Z,6.50
2018-05-09T06:22:59.814Z,6.90
2018-05-09T06:25:27.310Z,6.70
2018-05-09T06:27:56.998Z,6.20
2018-05-09T06:30:28.756Z,7.10
2018-05-09T06:32:56.233Z,7.23
2018-05-09T06:35:23.668Z,7.83
2018-05-09T06:37:51.261Z,7.70
2018-05-09T06:40:18.663Z,6.37
2018-05-09T06:42:46.165Z,6.90
2018-05-09T06:45:13.652Z,6.20
2018-05-09T06:47:41.115Z,6.80
2018-05-09T06:50:08.573Z,6.77
2018-05-09T06:52:36.061Z,6.97
2018-05-09T06:55:03.538Z,6.87
2018-05-09T06:57:31.000Z,6.47
2018-05-09T06:59:58.553Z,6.80
2018-05-09T07:02:25.975Z,6.60
2018-05-09T07:04:53.448Z,6.50
2018-05-09T07:07:20.975Z,6.97
2018-05-09T07:09:49.235Z,6.53
2018-05-09T07:12:16.704Z,6.30
2018-05-09T07:14:45.217Z,6.70
2018-05-09T07:17:12.656Z,6.57
2018-05-09T07:19:40.127Z,6.83
2018-05-09T07:22:07.600Z,6.40
2018-05-09T07:24:35.057Z,7.30
2018-05-09T07:27:02.539Z,6.53
2018-05-09T07:29:30.013Z,6.27
2018-05-09T07:31:57.489Z,6.23
2018-05-09T07:34:25.709Z,6.43
2018-05-09T07:36:53.190Z,5.77
2018-05-09T07:39:20.655Z,5.37
2018-05-09T07:41:48.131Z,5.87
2018-05-09T07:44:15.594Z,5.53
2018-05-09T07:46:43.882Z,4.90
2018-05-09T07:49:12.110Z,6.43
2018-05-09T07:51:39.579Z,5.50
2018-05-09T07:54:07.048Z,5.90
2018-05-09T07:56:34.511Z,5.40
2018-05-09T07:59:01.978Z,5.00
2018-05-09T08:01:29.450Z,6.27
2018-05-09T08:03:57.670Z,6.00
2018-05-09T08:06:25.145Z,5.63
2018-05-09T08:08:52.625Z,6.70
2018-05-09T08:11:20.094Z,5.47
2018-05-09T08:13:48.566Z,5.23
2018-05-09T08:16:16.050Z,5.27
2018-05-09T08:18:44.275Z,6.43
2018-05-09T08:21:11.763Z,6.83
2018-05-09T08:23:39.222Z,5.50
2018-05-09T08:26:07.458Z,6.50
2018-05-09T08:28:34.921Z,5.70
2018-05-09T08:31:02.381Z,6.57
2018-05-09T08:33:29.834Z,5.80
2018-05-09T08:35:57.303Z,4.93
2018-05-09T08:38:24.795Z,6.13
2018-05-09T08:40:53.026Z,6.10
2018-05-09T08:43:20.497Z,6.23
2018-05-09T08:45:47.950Z,5.80
2018-05-09T08:48:15.418Z,5.80
2018-05-09T08:50:42.894Z,6.50
2018-05-09T08:53:10.342Z,5.83
2018-05-09T08:55:37.806Z,4.77
2018-05-09T08:58:05.270Z,6.87
2018-05-09T09:00:32.742Z,6.70
2018-05-09T09:03:00.957Z,5.47
2018-05-09T09:05:28.416Z,6.43
2018-05-09T09:07:55.870Z,5.67
2018-05-09T09:10:23.340Z,4.50
2018-05-09T09:12:50.792Z,5.23
2018-05-09T09:15:18.270Z,5.40
2018-05-09T09:17:45.720Z,5.27
2018-05-09T09:20:13.207Z,5.20
2018-05-09T09:22:40.661Z,5.47
2018-05-09T09:25:08.130Z,5.77
2018-05-09T09:27:35.635Z,5.70
2018-05-09T09:30:03.076Z,5.47
2018-05-09T09:32:30.537Z,5.33
2018-05-09T09:34:58.009Z,4.90
2018-05-09T09:37:25.877Z,5.53
2018-05-09T09:39:53.341Z,5.67
2018-05-09T09:42:20.882Z,5.03
2018-05-09T09:44:48.353Z,5.60
2018-05-09T09:47:15.827Z,5.10
2018-05-09T09:49:43.282Z,5.27
2018-05-09T09:52:10.752Z,5.47
2018-05-09T09:54:38.206Z,5.43
2018-05-09T09:57:05.676Z,5.00
2018-05-09T09:59:33.191Z,5.67
2018-05-09T10:02:00.668Z,5.13
2018-05-09T10:04:28.129Z,5.07
2018-05-09T10:06:55.592Z,4.93
2018-05-09T10:09:23.110Z,5.00
2018-05-09T10:11:51.346Z,4.87
2018-05-09T10:14:18.807Z,5.40
2018-05-09T10:16:46.284Z,5.47
2018-05-09T10:19:14.062Z,5.43
2018-05-09T10:21:42.294Z,5.73
2018-05-09T10:24:09.769Z,5.90
2018-05-09T10:26:37.231Z,6.03
2018-05-09T10:29:04.691Z,5.90
2018-05-09T10:31:32.221Z,5.57
2018-05-09T10:33:59.623Z,5.20
2018-05-09T10:36:27.855Z,5.60
2018-05-09T10:38:55.350Z,5.60
2018-05-09T10:41:22.870Z,5.20
2018-05-09T10:43:50.398Z,4.90
2018-05-09T10:46:17.865Z,5.23
2018-05-09T10:48:45.333Z,4.80
2018-05-09T10:51:12.802Z,5.13
2018-05-09T10:53:40.262Z,5.67
2018-05-09T10:56:07.831Z,5.47
2018-05-09T10:58:35.330Z,5.10
2018-05-09T11:01:03.559Z,4.93
2018-05-09T11:03:31.023Z,5.30
2018-05-09T11:05:58.498Z,5.63
2018-05-09T11:08:25.966Z,5.63
2018-05-09T11:10:53.443Z,5.80
2018-05-09T11:13:21.670Z,5.90
2018-05-09T11:15:49.126Z,5.10
2018-05-09T11:18:16.594Z,5.30
2018-05-09T11:20:44.050Z,5.50
2018-05-09T11:23:11.526Z,5.67
2018-05-09T11:25:38.981Z,5.70
2018-05-09T11:28:07.223Z,6.13
2018-05-09T11:30:34.675Z,5.50
2018-05-09T11:33:02.142Z,5.80
2018-05-09T11:35:29.870Z,5.03
2018-05-09T11:37:58.110Z,4.83
2018-05-09T11:40:25.567Z,5.17
2018-05-09T11:42:53.077Z,6.20
2018-05-09T11:45:20.530Z,5.57
2018-05-09T11:47:48.011Z,5.30
2018-05-09T11:50:15.484Z,5.27
2018-05-09T11:52:42.966Z,5.30
2018-05-09T11:55:10.426Z,5.10
2018-05-09T11:57:38.681Z,5.17
2018-05-09T12:00:06.139Z,4.83
2018-05-09T12:02:33.682Z,5.53
2018-05-09T12:05:01.057Z,5.07
2018-05-09T12:07:28.534Z,5.10
2018-05-09T12:09:55.985Z,4.97
2018-05-09T12:12:23.449Z,5.00
2018-05-09T12:14:50.914Z,4.83
2018-05-09T12:17:19.146Z,5.00
2018-05-09T12:19:46.634Z,5.30
2018-05-09T12:22:14.102Z,5.30
2018-05-09T12:24:41.666Z,5.40
2018-05-09T12:27:09.023Z,5.43
2018-05-09T12:29:36.480Z,5.47
2018-05-09T12:32:04.721Z,4.80
2018-05-09T12:34:32.199Z,4.60
2018-05-09T12:36:59.664Z,4.57
2018-05-09T12:39:27.132Z,4.90
2018-05-09T12:41:54.595Z,5.30
2018-05-09T12:44:22.045Z,5.03
2018-05-09T12:46:49.513Z,5.07
2018-05-09T12:49:16.978Z,5.00
2018-05-09T12:51:44.458Z,4.93
2018-05-09T12:54:12.683Z,4.40
2018-05-09T12:56:40.176Z,4.57
2018-05-09T12:59:07.644Z,4.63
2018-05-09T13:01:35.977Z,4.90
2018-05-09T13:04:03.438Z,4.70
2018-05-09T13:06:30.895Z,4.77
2018-05-09T13:08:58.371Z,4.80
2018-05-09T13:11:25.817Z,5.10
2018-05-09T13:13:53.294Z,4.87
2018-05-09T13:16:20.742Z,4.83
2018-05-09T13:18:48.230Z,4.63
2018-05-09T13:21:16.445Z,4.77
2018-05-09T13:23:43.913Z,4.73
2018-05-09T13:26:11.764Z,4.30
2018-05-09T13:28:39.572Z,4.57
2018-05-09T13:31:07.026Z,4.47
2018-05-09T13:33:34.493Z,4.23
2018-05-09T13:36:01.967Z,4.23
2018-05-09T13:38:29.499Z,4.27
2018-05-09T13:40:57.141Z,4.43
2018-05-09T13:43:24.615Z,4.77
2018-05-09T13:45:52.103Z,4.27
2018-05-09T13:48:20.338Z,4.33
2018-05-09T13:50:47.807Z,4.07
2018-05-09T13:53:15.273Z,4.03
2018-05-09T13:55:42.830Z,3.73
2018-05-09T13:58:10.293Z,4.43
2018-05-09T14:00:37.754Z,3.70
2018-05-09T14:03:05.227Z,4.37
2018-05-09T14:05:32.683Z,4.50
2018-05-09T14:08:01.654Z,5.03
2018-05-09T14:10:29.115Z,4.70
2018-05-09T14:12:56.583Z,4.63
2018-05-09T14:15:24.086Z,4.80
2018-05-09T14:17:51.514Z,4.10
2018-05-09T14:20:18.975Z,4.27
2018-05-09T14:22:46.584Z,4.53
2018-05-09T14:25:14.088Z,4.53
2018-05-09T14:27:41.611Z,4.57
2018-05-09T14:30:09.059Z,4.53
2018-05-09T14:32:36.539Z,4.73
2018-05-09T14:35:04.047Z,4.40
2018-05-09T14:37:32.373Z,4.60
2018-05-09T14:39:59.830Z,4.97
2018-05-09T14:42:27.298Z,4.93
2018-05-09T14:44:54.767Z,4.40
2018-05-09T14:47:22.228Z,5.27
2018-05-09T14:49:49.728Z,4.73
2018-05-09T14:52:17.187Z,5.17
2018-05-09T14:54:45.666Z,4.70
2018-05-09T14:57:13.126Z,5.00
2018-05-09T14:59:41.043Z,4.73
2018-05-09T15:02:08.510Z,4.80
2018-05-09T15:04:36.066Z,4.47
2018-05-09T15:07:03.526Z,4.60
2018-05-09T15:09:32.049Z,4.90
2018-05-09T15:12:00.273Z,4.60
2018-05-09T15:14:27.805Z,5.33
2018-05-09T15:16:55.262Z,4.80
2018-05-09T15:19:22.731Z,3.93
2018-05-09T15:21:50.195Z,4.33
2018-05-09T15:24:17.727Z,4.30
2018-05-09T15:26:45.271Z,4.10
2018-05-09T15:29:13.555Z,4.43
2018-05-09T15:31:41.833Z,4.30
2018-05-09T15:34:10.122Z,4.50
2018-05-09T15:36:37.617Z,4.40
2018-05-09T15:39:13.712Z,4.80
2018-05-09T15:41:41.459Z,4.63
2018-05-09T15:44:08.920Z,4.10
2018-05-09T15:46:36.394Z,4.20
2018-05-09T15:49:04.701Z,4.17
2018-05-09T15:51:32.191Z,4.30
2018-05-09T15:53:59.946Z,6.10
2018-05-09T15:56:29.313Z,4.00
2018-05-09T15:58:57.543Z,4.40
2018-05-09T16:01:25.103Z,4.20
2018-05-09T16:03:54.383Z,4.37
2018-05-09T16:06:22.066Z,4.10
2018-05-09T16:08:50.319Z,4.27
2018-05-09T16:11:17.765Z,4.10
2018-05-09T16:13:46.019Z,4.60
2018-05-09T16:16:14.260Z,3.60
2018-05-09T16:18:42.177Z,3.77
2018-05-09T16:21:10.451Z,3.67
2018-05-09T16:23:42.030Z,4.10
2018-05-09T16:26:09.480Z,3.87
2018-05-09T16:28:36.957Z,3.70
2018-05-09T16:31:04.424Z,3.87
2018-05-09T16:33:32.047Z,3.53
2018-05-09T16:35:59.606Z,4.37
2018-05-09T16:38:27.829Z,3.73
2018-05-09T16:40:55.295Z,4.13
2018-05-09T16:43:25.111Z,4.40
2018-05-09T16:45:53.487Z,3.53
2018-05-09T16:48:21.597Z,3.63
2018-05-09T16:50:49.886Z,4.03
2018-05-09T16:53:18.188Z,3.83
2018-05-09T16:55:46.448Z,3.50
2018-05-09T16:58:14.677Z,3.93
2018-05-09T17:00:42.141Z,4.00
2018-05-09T17:03:09.667Z,3.90
2018-05-09T17:05:37.220Z,3.80
2018-05-09T17:08:04.590Z,3.47
2018-05-09T17:10:32.045Z,3.93
2018-05-09T17:12:59.585Z,4.00
2018-05-09T17:15:33.391Z,3.90
2018-05-09T17:18:00.899Z,3.73
2018-05-09T17:20:28.366Z,4.13
2018-05-09T17:22:55.839Z,4.03
2018-05-09T17:25:23.314Z,3.90
2018-05-09T17:27:51.544Z,3.83
2018-05-09T17:30:19.053Z,4.00
2018-05-09T17:32:46.482Z,4.33
2018-05-09T17:35:13.967Z,3.73
2018-05-09T17:37:42.191Z,3.90
2018-05-09T17:40:09.738Z,3.83
2018-05-09T17:42:37.288Z,3.70
2018-05-09T17:45:04.653Z,3.63
2018-05-09T17:47:32.175Z,4.30
2018-05-09T17:50:00.416Z,3.60
2018-05-09T17:52:27.875Z,3.83
2018-05-09T17:54:55.378Z,3.90
2018-05-09T17:57:23.599Z,3.80
2018-05-09T17:59:51.062Z,3.80
2018-05-09T18:02:18.512Z,3.40
2018-05-09T18:04:45.979Z,3.70
2018-05-09T18:07:13.447Z,4.27
2018-05-09T18:09:40.926Z,4.40
2018-05-09T18:12:09.206Z,4.07
2018-05-09T18:14:37.524Z,4.20
2018-05-09T18:17:04.917Z,3.80
2018-05-09T18:19:32.377Z,4.00
2018-05-09T18:21:59.844Z,4.07
2018-05-09T18:24:27.311Z,4.37
2018-05-09T18:26:54.857Z,4.07
2018-05-09T18:29:22.303Z,4.37
2018-05-09T18:31:50.042Z,4.13
2018-05-09T18:34:17.494Z,4.40
2018-05-09T18:36:44.954Z,3.60
2018-05-09T18:39:12.488Z,4.03
2018-05-09T18:41:40.756Z,4.30
2018-05-09T18:44:09.076Z,4.00
2018-05-09T18:46:36.480Z,4.13
2018-05-09T18:49:03.946Z,4.47
2018-05-09T18:51:32.170Z,4.70
2018-05-09T18:53:59.657Z,4.80
2018-05-09T18:56:27.085Z,5.37
2018-05-09T18:58:55.455Z,5.17
2018-05-09T19:01:22.908Z,5.20
2018-05-09T19:03:50.375Z,5.73
2018-05-09T19:09:17.765Z,21.83
2018-05-09T19:11:45.234Z,18.87
2018-05-09T19:14:12.712Z,14.00
2018-05-09T19:16:40.285Z,9.30
2018-05-09T19:19:08.577Z,6.47
2018-05-09T19:21:36.815Z,5.67
2018-05-09T19:24:04.283Z,5.30
2018-05-09T19:26:32.519Z,5.50
2018-05-09T19:29:01.166Z,5.17
2018-05-09T19:31:29.463Z,4.70
2018-05-09T19:33:56.923Z,4.83
2018-05-09T19:36:24.398Z,4.60
2018-05-09T19:38:51.927Z,4.50
2018-05-09T19:41:20.221Z,5.40
2018-05-09T19:43:48.437Z,4.80
2018-05-09T19:46:15.924Z,5.37
2018-05-09T19:48:44.201Z,5.20
2018-05-09T19:51:12.491Z,6.70
2018-05-09T19:53:40.717Z,6.10
2018-05-09T19:56:08.187Z,5.00
2018-05-09T19:58:35.653Z,5.53
2018-05-09T20:01:03.111Z,5.00
2018-05-09T20:03:30.597Z,5.07
2018-05-09T20:05:58.828Z,5.77
2018-05-09T20:08:26.281Z,6.20
2018-05-09T20:10:53.815Z,5.27
2018-05-09T20:13:21.271Z,5.30
2018-05-09T20:15:49.787Z,5.50
2018-05-09T20:18:17.234Z,5.77
2018-05-09T20:20:44.707Z,6.27
2018-05-09T20:23:12.164Z,5.47
2018-05-09T20:25:39.639Z,5.90
2018-05-09T20:28:07.127Z,5.87
2018-05-09T20:30:41.041Z,5.67
2018-05-09T20:33:09.270Z,5.10
2018-05-09T20:35:36.793Z,5.40
2018-05-09T20:38:04.242Z,4.80
2018-05-09T20:40:31.711Z,4.97
2018-05-09T20:42:59.185Z,5.27
2018-05-09T20:45:27.078Z,4.50
2018-05-09T20:47:54.577Z,4.63
2018-05-09T20:50:22.024Z,5.80
2018-05-09T20:52:50.238Z,5.30
2018-05-09T20:55:27.820Z,5.60
2018-05-09T20:57:55.310Z,5.17
2018-05-09T21:00:22.758Z,5.27
2018-05-09T21:02:50.218Z,5.07
2018-05-09T21:05:17.679Z,5.43
2018-05-09T21:07:57.218Z,5.23
2018-05-09T21:10:24.687Z,4.83
2018-05-09T21:12:52.151Z,6.10
2018-05-09T21:15:19.626Z,7.03
2018-05-09T21:17:47.799Z,8.27
2018-05-09T21:20:15.341Z,8.40
2018-05-09T21:22:42.728Z,6.00
2018-05-09T21:25:10.210Z,5.57
2018-05-09T21:27:38.477Z,5.00
2018-05-09T21:30:06.706Z,5.20
2018-05-09T21:32:34.171Z,5.63
2018-05-09T21:35:02.706Z,5.90
2018-05-09T21:37:30.922Z,6.70
2018-05-09T21:39:58.419Z,6.60
2018-05-09T21:42:25.880Z,5.50
2018-05-09T21:44:53.324Z,4.73
2018-05-09T21:47:20.793Z,5.90
2018-05-09T21:49:48.262Z,6.30
2018-05-09T21:52:16.481Z,6.03
2018-05-09T21:54:43.943Z,5.57
2018-05-09T21:57:11.409Z,6.03
2018-05-09T21:59:38.866Z,5.47
2018-05-09T22:02:06.341Z,5.20
2018-05-09T22:04:33.820Z,5.70
2018-05-09T22:07:01.278Z,5.60
2018-05-09T22:09:29.502Z,4.87
2018-05-09T22:11:56.974Z,5.37
2018-05-09T22:14:24.434Z,4.63
2018-05-09T22:16:51.903Z,5.37
2018-05-09T22:19:19.348Z,5.37
2018-05-09T22:21:46.851Z,5.70
2018-05-09T22:24:15.095Z,5.27
2018-05-09T22:26:42.566Z,4.83
2018-05-09T22:29:10.080Z,5.23
2018-05-09T22:31:37.502Z,5.10
2018-05-09T22:34:05.065Z,5.83
2018-05-09T22:36:33.295Z,5.10
2018-05-09T22:39:00.755Z,5.37
2018-05-09T22:41:28.216Z,5.63
2018-05-09T22:43:55.682Z,5.97
2018-05-09T22:46:23.198Z,6.17
2018-05-09T22:48:50.654Z,5.97
2018-05-09T22:51:18.128Z,5.90
2018-05-09T22:53:45.583Z,6.23
2018-05-09T22:56:13.054Z,5.67
2018-05-09T22:58:40.531Z,5.03
2018-05-09T23:01:07.988Z,5.60
2018-05-09T23:03:35.451Z,5.27
2018-05-09T23:06:02.929Z,6.30
2018-05-09T23:08:30.381Z,6.73
2018-05-09T23:10:57.856Z,7.10
2018-05-09T23:13:26.069Z,6.60
2018-05-09T23:15:53.543Z,6.70
2018-05-09T23:18:21.002Z,6.47
2018-05-09T23:20:48.470Z,5.87
2018-05-09T23:23:15.930Z,6.37
2018-05-09T23:25:43.402Z,7.27
2018-05-09T23:28:10.862Z,8.13
2018-05-09T23:30:38.321Z,8.67
2018-05-09T23:33:05.782Z,8.00
2018-05-09T23:35:33.259Z,7.60
2018-05-09T23:38:01.494Z,7.20
2018-05-09T23:40:28.949Z,7.80
2018-05-09T23:42:56.414Z,7.27
2018-05-09T23:45:23.864Z,6.20
2018-05-09T23:47:51.330Z,6.40
2018-05-09T23:50:18.777Z,5.70
2018-05-09T23:52:46.259Z,5.87
2018-05-09T23:55:13.714Z,6.37
2018-05-09T23:57:41.185Z,6.67
